sensor_id;sensor_type;location;lat;lon;timestamp;pressure;altitude;pressure_sealevel;temperature;humidity
26112;BME280;13829;48.990;8.346;2024-01-16T00:02:09;100036.53;;;1.41;82.08
26112;BME280;13829;48.990;8.346;2024-01-16T00:04:36;100037.44;;;1.19;81.85
26112;BME280;13829;48.990;8.346;2024-01-16T00:07:04;100046.53;;;1.32;81.68
26112;BME280;13829;48.990;8.346;2024-01-16T00:09:33;100046.50;;;1.30;81.95
26112;BME280;13829;48.990;8.346;2024-01-16T00:12:01;100046.25;;;1.24;82.08
26112;BME280;13829;48.990;8.346;2024-01-16T00:14:28;100050.91;;;1.33;80.67
26112;BME280;13829;48.990;8.346;2024-01-16T00:16:55;100046.81;;;1.39;81.19
26112;BME280;13829;48.990;8.346;2024-01-16T00:19:23;100054.38;;;1.57;80.25
26112;BME280;13829;48.990;8.346;2024-01-16T00:21:50;100059.31;;;1.50;79.45
26112;BME280;13829;48.990;8.346;2024-01-16T00:24:17;100049.84;;;1.52;80.67
26112;BME280;13829;48.990;8.346;2024-01-16T00:26:44;100049.06;;;1.54;80.28
26112;BME280;13829;48.990;8.346;2024-01-16T00:29:12;100045.06;;;1.38;81.21
26112;BME280;13829;48.990;8.346;2024-01-16T00:31:39;100039.16;;;1.42;80.35
26112;BME280;13829;48.990;8.346;2024-01-16T00:34:06;100051.91;;;1.36;80.88
26112;BME280;13829;48.990;8.346;2024-01-16T00:36:34;100037.13;;;1.58;80.91
26112;BME280;13829;48.990;8.346;2024-01-16T00:39:01;100042.34;;;1.59;80.93
26112;BME280;13829;48.990;8.346;2024-01-16T00:41:29;100043.84;;;1.53;80.41
26112;BME280;13829;48.990;8.346;2024-01-16T00:43:56;100044.72;;;1.53;81.22
26112;BME280;13829;48.990;8.346;2024-01-16T00:46:23;100043.53;;;1.43;81.48
26112;BME280;13829;48.990;8.346;2024-01-16T00:48:50;100047.16;;;1.49;81.45
26112;BME280;13829;48.990;8.346;2024-01-16T00:51:17;100045.56;;;1.76;80.84
26112;BME280;13829;48.990;8.346;2024-01-16T00:53:45;100040.66;;;1.86;79.27
26112;BME280;13829;48.990;8.346;2024-01-16T00:56:12;100044.72;;;1.77;78.72
26112;BME280;13829;48.990;8.346;2024-01-16T00:58:39;100041.28;;;1.78;79.24
26112;BME280;13829;48.990;8.346;2024-01-16T01:01:06;100036.53;;;1.91;79.86
26112;BME280;13829;48.990;8.346;2024-01-16T01:03:33;100040.88;;;1.92;79.22
26112;BME280;13829;48.990;8.346;2024-01-16T01:06:01;100039.84;;;1.87;79.44
26112;BME280;13829;48.990;8.346;2024-01-16T01:08:28;100044.91;;;1.84;80.19
26112;BME280;13829;48.990;8.346;2024-01-16T01:10:56;100047.19;;;1.74;80.10
26112;BME280;13829;48.990;8.346;2024-01-16T01:13:23;100047.66;;;1.88;80.09
26112;BME280;13829;48.990;8.346;2024-01-16T01:15:50;100051.66;;;1.78;78.82
26112;BME280;13829;48.990;8.346;2024-01-16T01:18:17;100050.94;;;1.83;80.26
26112;BME280;13829;48.990;8.346;2024-01-16T01:20:44;100049.25;;;1.59;79.79
26112;BME280;13829;48.990;8.346;2024-01-16T01:23:12;100058.91;;;1.63;79.64
26112;BME280;13829;48.990;8.346;2024-01-16T01:25:38;100060.63;;;1.62;79.17
26112;BME280;13829;48.990;8.346;2024-01-16T01:28:07;100066.13;;;1.48;79.03
26112;BME280;13829;48.990;8.346;2024-01-16T01:30:34;100056.50;;;1.43;79.77
26112;BME280;13829;48.990;8.346;2024-01-16T01:33:01;100063.59;;;1.49;79.55
26112;BME280;13829;48.990;8.346;2024-01-16T01:35:28;100067.53;;;1.39;79.61
26112;BME280;13829;48.990;8.346;2024-01-16T01:37:54;100075.16;;;1.35;80.01
26112;BME280;13829;48.990;8.346;2024-01-16T01:40:21;100070.31;;;1.44;80.65
26112;BME280;13829;48.990;8.346;2024-01-16T01:42:48;100064.59;;;1.53;80.41
26112;BME280;13829;48.990;8.346;2024-01-16T01:45:17;100072.28;;;1.27;80.47
26112;BME280;13829;48.990;8.346;2024-01-16T01:47:44;100068.03;;;1.29;80.59
26112;BME280;13829;48.990;8.346;2024-01-16T01:50:11;100074.88;;;1.27;80.18
26112;BME280;13829;48.990;8.346;2024-01-16T01:52:40;100071.16;;;1.20;80.79
26112;BME280;13829;48.990;8.346;2024-01-16T01:55:12;100078.88;;;1.19;81.71
26112;BME280;13829;48.990;8.346;2024-01-16T01:57:41;100074.28;;;1.11;81.86
26112;BME280;13829;48.990;8.346;2024-01-16T02:00:10;100073.66;;;1.17;81.44
26112;BME280;13829;48.990;8.346;2024-01-16T02:02:41;100073.47;;;1.12;81.71
26112;BME280;13829;48.990;8.346;2024-01-16T02:05:08;100073.59;;;1.16;81.61
26112;BME280;13829;48.990;8.346;2024-01-16T02:07:36;100077.00;;;1.14;81.66
26112;BME280;13829;48.990;8.346;2024-01-16T02:10:04;100078.06;;;0.97;81.35
26112;BME280;13829;48.990;8.346;2024-01-16T02:12:32;100072.41;;;0.85;82.00
26112;BME280;13829;48.990;8.346;2024-01-16T02:14:58;100081.91;;;0.84;82.31
26112;BME280;13829;48.990;8.346;2024-01-16T02:17:25;100086.25;;;0.85;82.54
26112;BME280;13829;48.990;8.346;2024-01-16T02:19:54;100080.31;;;1.10;82.01
26112;BME280;13829;48.990;8.346;2024-01-16T02:22:24;100079.91;;;1.00;80.63
26112;BME280;13829;48.990;8.346;2024-01-16T02:24:53;100078.31;;;1.03;81.19
26112;BME280;13829;48.990;8.346;2024-01-16T02:27:21;100069.81;;;1.07;81.21
26112;BME280;13829;48.990;8.346;2024-01-16T02:29:48;100070.81;;;1.11;80.68
26112;BME280;13829;48.990;8.346;2024-01-16T02:32:17;100066.31;;;1.05;80.75
26112;BME280;13829;48.990;8.346;2024-01-16T02:34:44;100067.91;;;0.79;80.29
26112;BME280;13829;48.990;8.346;2024-01-16T02:37:10;100069.81;;;0.62;80.75
26112;BME280;13829;48.990;8.346;2024-01-16T02:39:37;100079.09;;;0.57;81.39
26112;BME280;13829;48.990;8.346;2024-01-16T02:42:07;100083.81;;;0.67;82.10
26112;BME280;13829;48.990;8.346;2024-01-16T02:44:34;100079.78;;;0.53;80.75
26112;BME280;13829;48.990;8.346;2024-01-16T02:47:01;100073.34;;;0.64;82.63
26112;BME280;13829;48.990;8.346;2024-01-16T02:49:28;100074.63;;;0.53;82.32
26112;BME280;13829;48.990;8.346;2024-01-16T02:51:57;100080.50;;;0.48;81.55
26112;BME280;13829;48.990;8.346;2024-01-16T02:54:24;100073.75;;;0.52;82.21
26112;BME280;13829;48.990;8.346;2024-01-16T02:56:51;100079.53;;;0.46;81.98
26112;BME280;13829;48.990;8.346;2024-01-16T02:59:19;100080.97;;;0.38;82.55
26112;BME280;13829;48.990;8.346;2024-01-16T03:01:46;100086.19;;;0.61;81.51
26112;BME280;13829;48.990;8.346;2024-01-16T03:04:13;100088.72;;;0.38;82.00
26112;BME280;13829;48.990;8.346;2024-01-16T03:06:40;100083.28;;;0.11;82.09
26112;BME280;13829;48.990;8.346;2024-01-16T03:09:07;100089.13;;;0.28;82.00
26112;BME280;13829;48.990;8.346;2024-01-16T03:11:34;100096.25;;;0.12;81.85
26112;BME280;13829;48.990;8.346;2024-01-16T03:14:01;100088.81;;;-0.01;83.24
26112;BME280;13829;48.990;8.346;2024-01-16T03:16:30;100100.25;;;0.04;82.70
26112;BME280;13829;48.990;8.346;2024-01-16T03:18:58;100103.75;;;0.06;82.49
26112;BME280;13829;48.990;8.346;2024-01-16T03:21:24;100104.13;;;-0.06;83.07
26112;BME280;13829;48.990;8.346;2024-01-16T03:23:51;100098.47;;;0.03;82.83
26112;BME280;13829;48.990;8.346;2024-01-16T03:26:18;100103.53;;;0.21;83.11
26112;BME280;13829;48.990;8.346;2024-01-16T03:28:45;100099.47;;;0.07;83.84
26112;BME280;13829;48.990;8.346;2024-01-16T03:31:13;100095.25;;;0.09;83.41
26112;BME280;13829;48.990;8.346;2024-01-16T03:33:42;100097.59;;;0.24;82.18
26112;BME280;13829;48.990;8.346;2024-01-16T03:36:09;100102.34;;;0.13;82.68
26112;BME280;13829;48.990;8.346;2024-01-16T03:38:38;100101.69;;;0.19;83.20
26112;BME280;13829;48.990;8.346;2024-01-16T03:41:05;100105.56;;;0.28;82.31
26112;BME280;13829;48.990;8.346;2024-01-16T03:43:33;100106.47;;;0.09;82.32
26112;BME280;13829;48.990;8.346;2024-01-16T03:46:00;100101.13;;;0.26;82.58
26112;BME280;13829;48.990;8.346;2024-01-16T03:48:27;100105.50;;;0.27;81.20
26112;BME280;13829;48.990;8.346;2024-01-16T03:50:56;100103.53;;;0.21;81.14
26112;BME280;13829;48.990;8.346;2024-01-16T03:53:23;100096.84;;;0.05;81.65
26112;BME280;13829;48.990;8.346;2024-01-16T03:55:50;100102.13;;;0.08;81.81
26112;BME280;13829;48.990;8.346;2024-01-16T03:58:17;100099.50;;;-0.13;81.50
26112;BME280;13829;48.990;8.346;2024-01-16T04:00:44;100094.22;;;-0.16;82.06
26112;BME280;13829;48.990;8.346;2024-01-16T04:03:11;100103.25;;;-0.06;82.59
26112;BME280;13829;48.990;8.346;2024-01-16T04:05:38;100097.97;;;-0.29;82.21
26112;BME280;13829;48.990;8.346;2024-01-16T04:08:07;100100.13;;;-0.38;81.79
26112;BME280;13829;48.990;8.346;2024-01-16T04:10:34;100091.75;;;-0.52;82.70
26112;BME280;13829;48.990;8.346;2024-01-16T04:13:01;100096.88;;;-0.54;82.49
26112;BME280;13829;48.990;8.346;2024-01-16T04:15:28;100087.69;;;-0.27;82.80
26112;BME280;13829;48.990;8.346;2024-01-16T04:17:55;100098.09;;;-0.45;82.98
26112;BME280;13829;48.990;8.346;2024-01-16T04:20:22;100098.59;;;-0.54;82.48
26112;BME280;13829;48.990;8.346;2024-01-16T04:22:49;100098.78;;;-0.50;83.10
26112;BME280;13829;48.990;8.346;2024-01-16T04:25:18;100095.91;;;-0.36;82.34
26112;BME280;13829;48.990;8.346;2024-01-16T04:27:45;100091.16;;;-0.46;81.60
26112;BME280;13829;48.990;8.346;2024-01-16T04:30:13;100095.66;;;-0.62;82.28
26112;BME280;13829;48.990;8.346;2024-01-16T04:32:40;100081.44;;;-0.52;82.61
26112;BME280;13829;48.990;8.346;2024-01-16T04:35:08;100090.78;;;-0.56;82.16
26112;BME280;13829;48.990;8.346;2024-01-16T04:37:35;100092.56;;;-0.73;82.41
26112;BME280;13829;48.990;8.346;2024-01-16T04:40:02;100095.69;;;-0.80;83.48
26112;BME280;13829;48.990;8.346;2024-01-16T04:42:32;100096.59;;;-0.79;83.10
26112;BME280;13829;48.990;8.346;2024-01-16T04:44:59;100091.44;;;-0.79;83.12
26112;BME280;13829;48.990;8.346;2024-01-16T04:47:26;100086.03;;;-0.84;83.80
26112;BME280;13829;48.990;8.346;2024-01-16T04:49:53;100087.75;;;-0.85;83.98
26112;BME280;13829;48.990;8.346;2024-01-16T04:52:20;100087.19;;;-0.97;83.63
26112;BME280;13829;48.990;8.346;2024-01-16T04:54:47;100086.09;;;-1.02;85.00
26112;BME280;13829;48.990;8.346;2024-01-16T04:57:14;100081.59;;;-1.06;85.33
26112;BME280;13829;48.990;8.346;2024-01-16T04:59:42;100080.56;;;-1.10;85.02
26112;BME280;13829;48.990;8.346;2024-01-16T05:02:09;100085.38;;;-1.18;85.71
26112;BME280;13829;48.990;8.346;2024-01-16T05:04:37;100082.94;;;-1.15;86.10
26112;BME280;13829;48.990;8.346;2024-01-16T05:07:04;100082.19;;;-1.12;86.16
26112;BME280;13829;48.990;8.346;2024-01-16T05:09:31;100077.03;;;-1.12;86.19
26112;BME280;13829;48.990;8.346;2024-01-16T05:11:59;100068.41;;;-1.12;85.59
26112;BME280;13829;48.990;8.346;2024-01-16T05:14:26;100079.53;;;-1.13;85.87
26112;BME280;13829;48.990;8.346;2024-01-16T05:16:54;100062.78;;;-1.04;85.57
26112;BME280;13829;48.990;8.346;2024-01-16T05:19:21;100057.41;;;-1.08;85.94
26112;BME280;13829;48.990;8.346;2024-01-16T05:21:48;100049.66;;;-1.08;86.50
26112;BME280;13829;48.990;8.346;2024-01-16T05:24:15;100046.28;;;-1.07;86.11
26112;BME280;13829;48.990;8.346;2024-01-16T05:26:42;100047.09;;;-1.08;85.57
26112;BME280;13829;48.990;8.346;2024-01-16T05:29:09;100047.69;;;-1.14;85.76
26112;BME280;13829;48.990;8.346;2024-01-16T05:31:40;100032.22;;;-1.14;85.89
26112;BME280;13829;48.990;8.346;2024-01-16T05:34:09;100030.22;;;-1.20;85.97
26112;BME280;13829;48.990;8.346;2024-01-16T05:36:36;100029.94;;;-1.26;86.23
26112;BME280;13829;48.990;8.346;2024-01-16T05:39:03;100021.91;;;-1.32;87.14
26112;BME280;13829;48.990;8.346;2024-01-16T05:41:33;100025.38;;;-1.32;86.90
26112;BME280;13829;48.990;8.346;2024-01-16T05:44:00;100025.47;;;-1.30;87.65
26112;BME280;13829;48.990;8.346;2024-01-16T05:46:29;100020.28;;;-1.30;88.26
26112;BME280;13829;48.990;8.346;2024-01-16T05:48:56;100030.63;;;-1.30;87.23
26112;BME280;13829;48.990;8.346;2024-01-16T05:51:26;100031.34;;;-1.33;87.92
26112;BME280;13829;48.990;8.346;2024-01-16T05:53:53;100035.63;;;-1.33;88.46
26112;BME280;13829;48.990;8.346;2024-01-16T05:56:19;100031.13;;;-1.37;87.96
26112;BME280;13829;48.990;8.346;2024-01-16T05:58:46;100025.91;;;-1.39;88.23
26112;BME280;13829;48.990;8.346;2024-01-16T06:01:13;100030.94;;;-1.42;89.02
26112;BME280;13829;48.990;8.346;2024-01-16T06:03:41;100036.91;;;-1.43;88.00
26112;BME280;13829;48.990;8.346;2024-01-16T06:06:11;100033.56;;;-1.40;88.89
26112;BME280;13829;48.990;8.346;2024-01-16T06:08:39;100039.69;;;-1.38;89.21
26112;BME280;13829;48.990;8.346;2024-01-16T06:11:06;100026.78;;;-1.38;88.36
26112;BME280;13829;48.990;8.346;2024-01-16T06:13:33;100029.47;;;-1.37;88.16
26112;BME280;13829;48.990;8.346;2024-01-16T06:16:00;100032.09;;;-1.35;88.02
26112;BME280;13829;48.990;8.346;2024-01-16T06:18:27;100032.09;;;-1.35;87.33
26112;BME280;13829;48.990;8.346;2024-01-16T06:20:54;100033.88;;;-1.34;88.84
26112;BME280;13829;48.990;8.346;2024-01-16T06:23:21;100034.88;;;-1.31;88.68
26112;BME280;13829;48.990;8.346;2024-01-16T06:25:50;100041.91;;;-1.28;88.99
26112;BME280;13829;48.990;8.346;2024-01-16T06:28:17;100029.41;;;-1.19;89.14
26112;BME280;13829;48.990;8.346;2024-01-16T06:30:44;100035.50;;;-1.17;89.02
26112;BME280;13829;48.990;8.346;2024-01-16T06:33:10;100039.97;;;-1.14;89.33
26112;BME280;13829;48.990;8.346;2024-01-16T06:35:38;100039.22;;;-1.11;88.14
26112;BME280;13829;48.990;8.346;2024-01-16T06:38:05;100043.41;;;-1.13;87.98
26112;BME280;13829;48.990;8.346;2024-01-16T06:40:32;100046.50;;;-1.21;88.23
26112;BME280;13829;48.990;8.346;2024-01-16T06:43:01;100036.19;;;-1.21;88.80
26112;BME280;13829;48.990;8.346;2024-01-16T06:45:28;100039.56;;;-1.22;88.75
26112;BME280;13829;48.990;8.346;2024-01-16T06:47:55;100037.00;;;-1.22;88.97
26112;BME280;13829;48.990;8.346;2024-01-16T06:50:22;100030.75;;;-1.27;88.40
26112;BME280;13829;48.990;8.346;2024-01-16T06:52:49;100027.41;;;-1.24;89.27
26112;BME280;13829;48.990;8.346;2024-01-16T06:55:16;100032.69;;;-1.23;88.91
26112;BME280;13829;48.990;8.346;2024-01-16T06:57:43;100017.19;;;-1.23;88.97
26112;BME280;13829;48.990;8.346;2024-01-16T07:00:15;100019.97;;;-1.18;89.44
26112;BME280;13829;48.990;8.346;2024-01-16T07:02:42;100010.91;;;-1.10;89.67
26112;BME280;13829;48.990;8.346;2024-01-16T07:05:11;100016.81;;;-1.12;88.91
26112;BME280;13829;48.990;8.346;2024-01-16T07:07:38;100019.66;;;-1.06;88.89
26112;BME280;13829;48.990;8.346;2024-01-16T07:10:07;100010.78;;;-0.93;88.31
26112;BME280;13829;48.990;8.346;2024-01-16T07:12:38;100019.66;;;-1.06;87.87
26112;BME280;13829;48.990;8.346;2024-01-16T07:15:07;100019.66;;;-1.06;88.38
26112;BME280;13829;48.990;8.346;2024-01-16T07:17:35;100018.16;;;-1.01;89.08
26112;BME280;13829;48.990;8.346;2024-01-16T07:20:02;100009.06;;;-0.93;89.38
26112;BME280;13829;48.990;8.346;2024-01-16T07:22:29;100012.78;;;-0.86;87.82
26112;BME280;13829;48.990;8.346;2024-01-16T07:24:59;100011.22;;;-0.83;87.68
26112;BME280;13829;48.990;8.346;2024-01-16T07:27:26;100013.81;;;-0.83;87.40
26112;BME280;13829;48.990;8.346;2024-01-16T07:29:53;100012.31;;;-0.77;87.96
26112;BME280;13829;48.990;8.346;2024-01-16T07:32:20;100005.66;;;-0.72;87.00
26112;BME280;13829;48.990;8.346;2024-01-16T07:34:49;100009.34;;;-0.87;86.88
26112;BME280;13829;48.990;8.346;2024-01-16T07:37:17;100011.16;;;-0.84;87.96
26112;BME280;13829;48.990;8.346;2024-01-16T07:39:44;100015.75;;;-0.78;87.32
26112;BME280;13829;48.990;8.346;2024-01-16T07:42:10;100007.31;;;-0.74;88.00
26112;BME280;13829;48.990;8.346;2024-01-16T07:44:37;100004.69;;;-0.55;87.59
26112;BME280;13829;48.990;8.346;2024-01-16T07:47:05;100011.03;;;-0.27;86.00
26112;BME280;13829;48.990;8.346;2024-01-16T07:49:32;100015.56;;;-0.42;84.86
26112;BME280;13829;48.990;8.346;2024-01-16T07:52:01;100017.59;;;-0.35;84.86
26112;BME280;13829;48.990;8.346;2024-01-16T07:54:28;100017.97;;;-0.26;85.38
26112;BME280;13829;48.990;8.346;2024-01-16T07:56:54;100017.88;;;-0.29;85.13
26112;BME280;13829;48.990;8.346;2024-01-16T07:59:21;100016.47;;;-0.21;86.06
26112;BME280;13829;48.990;8.346;2024-01-16T08:01:49;100011.25;;;-0.01;85.54
26112;BME280;13829;48.990;8.346;2024-01-16T08:04:16;100012.69;;;0.13;85.20
26112;BME280;13829;48.990;8.346;2024-01-16T08:06:43;100009.66;;;0.24;84.66
26112;BME280;13829;48.990;8.346;2024-01-16T08:09:12;100014.97;;;0.27;84.35
26112;BME280;13829;48.990;8.346;2024-01-16T08:11:39;100022.84;;;0.30;83.63
26112;BME280;13829;48.990;8.346;2024-01-16T08:14:06;100020.75;;;0.42;82.70
26112;BME280;13829;48.990;8.346;2024-01-16T08:16:34;100025.25;;;0.48;82.09
26112;BME280;13829;48.990;8.346;2024-01-16T08:19:01;100028.88;;;0.74;80.83
26112;BME280;13829;48.990;8.346;2024-01-16T08:21:29;100029.56;;;0.47;79.86
26112;BME280;13829;48.990;8.346;2024-01-16T08:23:56;100038.28;;;0.50;79.76
26112;BME280;13829;48.990;8.346;2024-01-16T08:26:24;100040.28;;;0.57;81.36
26112;BME280;13829;48.990;8.346;2024-01-16T08:28:51;100036.56;;;0.50;81.14
26112;BME280;13829;48.990;8.346;2024-01-16T08:31:18;100041.03;;;0.54;81.63
26112;BME280;13829;48.990;8.346;2024-01-16T08:33:45;100039.66;;;0.62;80.70
26112;BME280;13829;48.990;8.346;2024-01-16T08:36:13;100035.94;;;0.78;80.28
26112;BME280;13829;48.990;8.346;2024-01-16T08:38:41;100030.16;;;0.63;79.71
26112;BME280;13829;48.990;8.346;2024-01-16T08:41:08;100037.88;;;0.84;80.29
26112;BME280;13829;48.990;8.346;2024-01-16T08:43:36;100036.34;;;0.89;79.79
26112;BME280;13829;48.990;8.346;2024-01-16T08:46:03;100046.13;;;0.96;78.93
26112;BME280;13829;48.990;8.346;2024-01-16T08:48:30;100043.81;;;1.04;79.56
26112;BME280;13829;48.990;8.346;2024-01-16T08:50:57;100048.38;;;1.11;78.71
26112;BME280;13829;48.990;8.346;2024-01-16T08:53:24;100053.22;;;1.25;78.31
26112;BME280;13829;48.990;8.346;2024-01-16T08:55:51;100056.63;;;1.24;77.89
26112;BME280;13829;48.990;8.346;2024-01-16T08:58:18;100057.84;;;1.34;77.02
26112;BME280;13829;48.990;8.346;2024-01-16T09:00:46;100057.41;;;1.45;76.78
26112;BME280;13829;48.990;8.346;2024-01-16T09:03:13;100051.91;;;1.36;76.48
26112;BME280;13829;48.990;8.346;2024-01-16T09:05:40;100056.97;;;1.33;76.45
26112;BME280;13829;48.990;8.346;2024-01-16T09:08:09;100056.97;;;1.33;77.11
26112;BME280;13829;48.990;8.346;2024-01-16T09:10:36;100060.63;;;1.38;77.29
26112;BME280;13829;48.990;8.346;2024-01-16T09:13:03;100058.53;;;1.52;76.62
26112;BME280;13829;48.990;8.346;2024-01-16T09:15:30;100060.06;;;1.71;75.83
26112;BME280;13829;48.990;8.346;2024-01-16T09:17:58;100067.00;;;1.48;75.56
26112;BME280;13829;48.990;8.346;2024-01-16T09:20:25;100058.81;;;1.36;75.65
26112;BME280;13829;48.990;8.346;2024-01-16T09:22:52;100054.13;;;1.50;76.53
26112;BME280;13829;48.990;8.346;2024-01-16T09:25:19;100061.94;;;1.75;76.47
26112;BME280;13829;48.990;8.346;2024-01-16T09:27:46;100057.69;;;1.77;75.75
26112;BME280;13829;48.990;8.346;2024-01-16T09:30:14;100054.16;;;2.01;74.32
26112;BME280;13829;48.990;8.346;2024-01-16T09:32:42;100056.22;;;2.11;74.02
26112;BME280;13829;48.990;8.346;2024-01-16T09:35:10;100058.09;;;2.16;73.26
26112;BME280;13829;48.990;8.346;2024-01-16T09:37:37;100058.31;;;2.22;73.63
26112;BME280;13829;48.990;8.346;2024-01-16T09:40:07;100061.94;;;2.27;73.05
26112;BME280;13829;48.990;8.346;2024-01-16T09:42:34;100070.63;;;2.29;72.39
26112;BME280;13829;48.990;8.346;2024-01-16T09:45:02;100075.44;;;2.17;72.59
26112;BME280;13829;48.990;8.346;2024-01-16T09:47:30;100074.25;;;2.34;73.32
26112;BME280;13829;48.990;8.346;2024-01-16T09:49:59;100076.47;;;2.22;73.51
26112;BME280;13829;48.990;8.346;2024-01-16T09:52:28;100079.38;;;2.31;72.72
26112;BME280;13829;48.990;8.346;2024-01-16T09:54:55;100080.03;;;2.25;72.79
26112;BME280;13829;48.990;8.346;2024-01-16T09:57:26;100081.13;;;2.32;72.79
26112;BME280;13829;48.990;8.346;2024-01-16T09:59:53;100076.66;;;2.28;71.86
26112;BME280;13829;48.990;8.346;2024-01-16T10:02:22;100074.44;;;2.13;73.06
26112;BME280;13829;48.990;8.346;2024-01-16T10:04:49;100064.59;;;2.28;71.77
26112;BME280;13829;48.990;8.346;2024-01-16T10:07:18;100059.84;;;2.42;72.15
26112;BME280;13829;48.990;8.346;2024-01-16T10:09:52;100049.66;;;2.49;72.21
26112;BME280;13829;48.990;8.346;2024-01-16T10:12:19;100046.81;;;2.41;72.06
26112;BME280;13829;48.990;8.346;2024-01-16T10:14:47;100034.72;;;2.41;72.66
26112;BME280;13829;48.990;8.346;2024-01-16T10:17:17;100024.19;;;2.64;72.50
26112;BME280;13829;48.990;8.346;2024-01-16T10:19:49;100025.75;;;2.88;70.55
26112;BME280;13829;48.990;8.346;2024-01-16T10:22:20;100015.06;;;3.07;69.67
26112;BME280;13829;48.990;8.346;2024-01-16T10:24:48;100021.09;;;3.06;69.10
26112;BME280;13829;48.990;8.346;2024-01-16T10:27:17;100021.63;;;3.25;69.59
26112;BME280;13829;48.990;8.346;2024-01-16T10:29:55;100015.16;;;3.10;68.84
26112;BME280;13829;48.990;8.346;2024-01-16T10:32:30;100017.94;;;3.47;68.09
26112;BME280;13829;48.990;8.346;2024-01-16T10:35:06;100015.38;;;3.49;67.55
26112;BME280;13829;48.990;8.346;2024-01-16T10:37:47;100014.63;;;3.54;67.01
26112;BME280;13829;48.990;8.346;2024-01-16T10:40:16;100003.25;;;3.51;66.49
26112;BME280;13829;48.990;8.346;2024-01-16T10:42:45;99996.81;;;3.36;66.79
26112;BME280;13829;48.990;8.346;2024-01-16T10:45:18;100003.66;;;3.33;65.69
26112;BME280;13829;48.990;8.346;2024-01-16T10:47:49;100002.06;;;3.07;66.57
26112;BME280;13829;48.990;8.346;2024-01-16T10:50:16;99996.00;;;3.07;68.12
26112;BME280;13829;48.990;8.346;2024-01-16T10:52:47;100004.56;;;3.03;67.58
26112;BME280;13829;48.990;8.346;2024-01-16T10:55:21;100009.19;;;2.84;67.50
26112;BME280;13829;48.990;8.346;2024-01-16T10:57:50;100005.81;;;2.87;67.84
26112;BME280;13829;48.990;8.346;2024-01-16T11:00:20;99996.44;;;2.92;68.79
26112;BME280;13829;48.990;8.346;2024-01-16T11:02:59;99995.28;;;3.13;67.80
26112;BME280;13829;48.990;8.346;2024-01-16T11:05:29;99992.91;;;3.20;68.08
26112;BME280;13829;48.990;8.346;2024-01-16T11:07:59;99982.50;;;3.20;67.55
26112;BME280;13829;48.990;8.346;2024-01-16T11:10:30;99985.34;;;2.98;67.03
26112;BME280;13829;48.990;8.346;2024-01-16T11:13:01;99982.84;;;3.33;67.28
26112;BME280;13829;48.990;8.346;2024-01-16T11:15:28;99982.69;;;3.58;65.62
26112;BME280;13829;48.990;8.346;2024-01-16T11:17:55;99974.00;;;3.58;64.22
26112;BME280;13829;48.990;8.346;2024-01-16T11:20:23;99970.06;;;3.40;64.58
26112;BME280;13829;48.990;8.346;2024-01-16T11:22:52;99972.97;;;3.51;65.12
26112;BME280;13829;48.990;8.346;2024-01-16T11:25:31;99963.88;;;3.69;65.18
26112;BME280;13829;48.990;8.346;2024-01-16T11:28:08;99969.59;;;3.89;62.54
26112;BME280;13829;48.990;8.346;2024-01-16T11:30:36;99962.84;;;3.97;61.58
26112;BME280;13829;48.990;8.346;2024-01-16T11:33:03;99960.34;;;4.00;62.44
26112;BME280;13829;48.990;8.346;2024-01-16T11:35:35;99947.38;;;4.03;62.13
26112;BME280;13829;48.990;8.346;2024-01-16T11:38:05;99945.72;;;4.05;61.44
26112;BME280;13829;48.990;8.346;2024-01-16T11:40:33;99942.03;;;3.97;61.92
26112;BME280;13829;48.990;8.346;2024-01-16T11:43:37;99937.34;;;3.84;61.93
26112;BME280;13829;48.990;8.346;2024-01-16T11:46:06;99936.38;;;3.79;62.88
26112;BME280;13829;48.990;8.346;2024-01-16T11:48:34;99936.25;;;3.72;63.08
26112;BME280;13829;48.990;8.346;2024-01-16T11:51:25;99929.03;;;3.62;62.78
26112;BME280;13829;48.990;8.346;2024-01-16T11:53:52;99917.84;;;4.01;60.22
26112;BME280;13829;48.990;8.346;2024-01-16T11:57:15;99910.38;;;3.79;60.73
26112;BME280;13829;48.990;8.346;2024-01-16T12:00:01;99914.06;;;3.88;61.48
26112;BME280;13829;48.990;8.346;2024-01-16T12:02:51;99911.56;;;3.56;62.58
26112;BME280;13829;48.990;8.346;2024-01-16T12:05:19;99892.78;;;3.68;63.14
26112;BME280;13829;48.990;8.346;2024-01-16T12:07:48;99886.91;;;3.42;63.38
26112;BME280;13829;48.990;8.346;2024-01-16T12:10:17;99883.44;;;3.41;63.27
26112;BME280;13829;48.990;8.346;2024-01-16T12:12:45;99888.31;;;3.29;63.82
26112;BME280;13829;48.990;8.346;2024-01-16T12:15:19;99887.16;;;3.18;63.63
26112;BME280;13829;48.990;8.346;2024-01-16T12:17:57;99884.88;;;3.30;63.25
26112;BME280;13829;48.990;8.346;2024-01-16T12:20:26;99885.25;;;3.10;63.88
26112;BME280;13829;48.990;8.346;2024-01-16T12:22:57;99884.25;;;3.05;64.74
26112;BME280;13829;48.990;8.346;2024-01-16T12:25:24;99882.66;;;3.10;65.02
26112;BME280;13829;48.990;8.346;2024-01-16T12:27:58;99886.50;;;3.25;63.79
26112;BME280;13829;48.990;8.346;2024-01-16T12:30:29;99883.06;;;3.26;63.65
26112;BME280;13829;48.990;8.346;2024-01-16T12:33:04;99882.06;;;3.21;63.77
26112;BME280;13829;48.990;8.346;2024-01-16T12:35:34;99882.97;;;3.23;63.07
26112;BME280;13829;48.990;8.346;2024-01-16T12:38:02;99874.44;;;3.27;63.61
26112;BME280;13829;48.990;8.346;2024-01-16T12:40:31;99862.88;;;3.51;62.86
26112;BME280;13829;48.990;8.346;2024-01-16T12:42:59;99864.63;;;3.52;63.28
26112;BME280;13829;48.990;8.346;2024-01-16T12:45:27;99866.00;;;3.36;62.97
26112;BME280;13829;48.990;8.346;2024-01-16T12:47:55;99860.81;;;3.37;62.98
26112;BME280;13829;48.990;8.346;2024-01-16T12:50:26;99855.47;;;3.31;63.54
26112;BME280;13829;48.990;8.346;2024-01-16T12:53:04;99858.56;;;3.51;62.08
26112;BME280;13829;48.990;8.346;2024-01-16T12:55:33;99849.66;;;3.41;61.90
26112;BME280;13829;48.990;8.346;2024-01-16T12:58:18;99846.75;;;3.29;62.53
26112;BME280;13829;48.990;8.346;2024-01-16T13:00:48;99837.66;;;3.47;62.65
26112;BME280;13829;48.990;8.346;2024-01-16T13:03:15;99830.69;;;3.46;63.40
26112;BME280;13829;48.990;8.346;2024-01-16T13:05:45;99833.53;;;3.55;63.41